createdAt,value
2019-03-31T00:01:59.763Z,49.75
2019-03-31T00:07:07.961Z,45.66
2019-03-31T00:12:17.323Z,46.21
2019-03-31T00:17:25.773Z,43.32
2019-03-31T00:22:33.972Z,38.97
2019-03-31T00:27:42.225Z,33.10
2019-03-31T00:32:50.392Z,26.80
2019-03-31T00:37:58.651Z,24.66
2019-03-31T00:43:06.993Z,23.20
2019-03-31T00:48:15.133Z,27.07
2019-03-31T00:53:15.918Z,19.73
2019-03-31T00:58:24.129Z,20.29
2019-03-31T01:03:32.485Z,20.90
2019-03-31T01:08:41.052Z,16.33
2019-03-31T01:13:49.354Z,18.80
2019-03-31T01:18:57.648Z,15.94
2019-03-31T01:24:05.882Z,19.40
2019-03-31T01:29:16.952Z,17.11
2019-03-31T01:34:15.250Z,14.94
2019-03-31T01:39:23.560Z,19.59
2019-03-31T01:44:31.708Z,17.00
2019-03-31T01:49:39.834Z,18.98
2019-03-31T01:54:50.197Z,16.48
2019-03-31T01:59:48.616Z,18.34
2019-03-31T02:04:57.219Z,19.62
2019-03-31T02:10:06.333Z,18.70
2019-03-31T02:15:15.431Z,18.69
2019-03-31T02:20:24.089Z,19.81
2019-03-31T02:25:33.271Z,16.96
2019-03-31T02:30:42.075Z,15.01
2019-03-31T02:35:50.492Z,16.95
2019-03-31T02:40:59.111Z,17.39
2019-03-31T02:46:07.250Z,19.89
2019-03-31T02:51:15.731Z,15.13
2019-03-31T02:56:24.070Z,16.71
2019-03-31T03:01:33.939Z,15.01
2019-03-31T03:06:42.660Z,14.77
2019-03-31T03:11:51.175Z,15.38
2019-03-31T03:16:59.430Z,14.66
2019-03-31T03:22:07.805Z,13.22
2019-03-31T03:27:16.026Z,14.06
2019-03-31T03:32:24.571Z,12.25
2019-03-31T03:37:32.917Z,16.23
2019-03-31T03:42:41.380Z,18.01
2019-03-31T03:47:49.560Z,14.81
2019-03-31T03:52:58.023Z,15.84
2019-03-31T03:58:06.281Z,14.64
2019-03-31T04:03:28.974Z,13.58
2019-03-31T04:08:22.473Z,11.67
2019-03-31T04:13:30.857Z,9.78
2019-03-31T04:18:39.323Z,10.15
2019-03-31T04:23:47.659Z,9.30
2019-03-31T04:28:55.942Z,9.42
2019-03-31T04:34:04.434Z,7.09
2019-03-31T04:39:12.569Z,7.11
2019-03-31T04:44:20.871Z,7.52
2019-03-31T04:49:29.303Z,6.54
2019-03-31T04:54:37.837Z,5.52
2019-03-31T04:59:46.119Z,4.85
2019-03-31T05:04:54.418Z,4.86
2019-03-31T05:10:02.705Z,5.85
2019-03-31T05:15:11.149Z,6.66
2019-03-31T05:20:19.971Z,6.94
2019-03-31T05:25:28.091Z,7.67
2019-03-31T05:30:36.360Z,8.66
2019-03-31T05:35:44.829Z,9.77
2019-03-31T05:40:53.254Z,8.56
2019-03-31T05:46:01.695Z,9.36
2019-03-31T05:51:10.124Z,7.42
2019-03-31T05:56:18.404Z,9.26
2019-03-31T06:01:27.250Z,8.76
2019-03-31T06:06:37.201Z,10.32
2019-03-31T06:11:43.234Z,11.82
2019-03-31T06:16:51.767Z,8.95
2019-03-31T06:22:00.034Z,7.39
2019-03-31T06:27:08.454Z,9.55
2019-03-31T06:32:16.754Z,11.11
2019-03-31T06:37:25.221Z,9.36
2019-03-31T06:42:33.541Z,9.78
2019-03-31T06:47:41.821Z,9.79
2019-03-31T06:52:50.306Z,11.90
2019-03-31T06:57:58.774Z,10.50
2019-03-31T07:03:07.252Z,11.06
2019-03-31T07:08:15.471Z,14.02
2019-03-31T07:13:24.118Z,11.09
2019-03-31T07:18:32.440Z,9.94
2019-03-31T07:23:40.781Z,11.28
2019-03-31T07:28:49.130Z,11.18
2019-03-31T07:33:57.581Z,9.88
2019-03-31T07:39:06.037Z,13.40
2019-03-31T07:44:15.451Z,11.41
2019-03-31T07:49:21.919Z,10.49
2019-03-31T07:54:30.317Z,10.54
2019-03-31T07:59:38.714Z,10.36
2019-03-31T08:04:47.099Z,12.08
2019-03-31T08:09:55.767Z,9.77
2019-03-31T08:15:04.189Z,11.39
2019-03-31T08:20:12.519Z,9.14
2019-03-31T08:25:20.877Z,8.72
2019-03-31T08:30:29.310Z,9.73
2019-03-31T08:35:47.112Z,11.03
2019-03-31T08:40:45.572Z,9.98
2019-03-31T08:45:53.825Z,8.81
2019-03-31T08:51:02.153Z,8.54
2019-03-31T08:56:10.460Z,9.36
2019-03-31T09:01:18.946Z,17.03
2019-03-31T09:06:27.611Z,9.25
2019-03-31T09:11:36.138Z,6.77
2019-03-31T09:16:44.680Z,6.19
2019-03-31T09:21:53.155Z,7.65
2019-03-31T09:27:01.370Z,6.13
2019-03-31T09:32:09.793Z,4.92
2019-03-31T09:37:18.286Z,5.41
2019-03-31T09:42:26.575Z,7.53
2019-03-31T09:47:35.214Z,5.19
2019-03-31T09:52:44.134Z,4.54
2019-03-31T09:57:52.598Z,5.79
2019-03-31T10:03:01.340Z,5.09
2019-03-31T10:08:09.727Z,5.85
2019-03-31T10:13:18.185Z,4.91
2019-03-31T10:18:26.662Z,5.45
2019-03-31T10:23:37.369Z,5.39
2019-03-31T10:28:36.896Z,17.00
2019-03-31T10:33:48.378Z,6.54
2019-03-31T10:43:47.917Z,11.41
2019-03-31T10:48:56.294Z,10.43
2019-03-31T10:54:05.350Z,17.42
2019-03-31T10:59:16.108Z,7.74
2019-03-31T11:04:16.160Z,14.00
2019-03-31T11:09:25.281Z,15.51
2019-03-31T11:14:33.781Z,9.14
2019-03-31T11:19:43.415Z,11.00
2019-03-31T11:24:51.277Z,10.75
2019-03-31T11:40:17.437Z,10.96
2019-03-31T11:45:25.659Z,20.65
2019-03-31T11:50:33.960Z,7.42
2019-03-31T11:55:42.740Z,7.79
2019-03-31T12:05:58.608Z,8.16
2019-03-31T12:11:07.300Z,9.00
2019-03-31T12:16:16.764Z,9.37
2019-03-31T12:21:25.252Z,11.85
2019-03-31T12:26:33.643Z,6.96
2019-03-31T12:31:42.092Z,8.27
2019-03-31T12:36:50.469Z,7.75
2019-03-31T12:41:58.934Z,6.52
2019-03-31T12:47:07.334Z,15.73
2019-03-31T12:52:15.570Z,8.14
2019-03-31T12:57:23.766Z,6.05
2019-03-31T13:02:31.907Z,6.16
2019-03-31T13:07:40.321Z,13.44
2019-03-31T13:12:48.668Z,11.36
2019-03-31T13:17:56.902Z,26.78
2019-03-31T13:23:05.134Z,15.81
2019-03-31T13:28:13.282Z,7.40
2019-03-31T13:37:02.051Z,10.18
2019-03-31T13:38:27.323Z,7.46
2019-03-31T13:43:33.599Z,6.91
2019-03-31T13:48:41.922Z,6.53
2019-03-31T13:53:50.467Z,9.11
2019-03-31T13:58:59.101Z,7.56
2019-03-31T14:04:07.554Z,8.12
2019-03-31T14:09:15.850Z,7.95
2019-03-31T14:14:24.141Z,8.01
2019-03-31T14:19:32.522Z,6.18
2019-03-31T14:24:41.118Z,8.08
2019-03-31T14:29:49.562Z,11.32
2019-03-31T14:34:58.415Z,13.85
2019-03-31T14:40:07.255Z,7.41
2019-03-31T14:45:15.926Z,7.54
2019-03-31T14:50:24.257Z,10.04
2019-03-31T14:55:32.638Z,15.08
2019-03-31T15:00:40.847Z,8.62
2019-03-31T15:05:49.105Z,13.20
2019-03-31T15:10:57.558Z,12.90
2019-03-31T15:16:05.823Z,9.32
2019-03-31T15:21:14.112Z,7.22
2019-03-31T15:26:22.782Z,8.87
2019-03-31T15:31:31.139Z,6.47
2019-03-31T15:36:39.594Z,5.51
2019-03-31T15:41:48.122Z,10.31
2019-03-31T15:46:56.493Z,9.35
2019-03-31T15:52:05.020Z,5.51
2019-03-31T15:57:12.851Z,8.67
2019-03-31T16:02:21.296Z,14.67
2019-03-31T16:07:30.570Z,7.62
2019-03-31T16:12:39.689Z,5.45
2019-03-31T16:17:47.903Z,5.17
2019-03-31T16:22:56.501Z,6.09
2019-03-31T16:28:04.947Z,14.01
2019-03-31T16:33:13.357Z,8.00
2019-03-31T16:38:25.526Z,9.15
2019-03-31T16:43:31.972Z,6.04
2019-03-31T16:48:40.426Z,7.40
2019-03-31T16:53:48.699Z,5.43
2019-03-31T16:58:57.017Z,4.70
2019-03-31T17:04:05.365Z,3.73
2019-03-31T17:09:13.902Z,6.48
2019-03-31T17:14:22.261Z,5.49
2019-03-31T17:19:31.031Z,4.53
2019-03-31T17:24:39.442Z,4.77
2019-03-31T17:29:47.936Z,8.01
2019-03-31T17:34:56.364Z,4.54
2019-03-31T17:40:09.636Z,5.33
2019-03-31T17:45:08.488Z,5.39
2019-03-31T17:50:16.754Z,5.88
2019-03-31T17:55:24.934Z,6.74
2019-03-31T18:00:33.029Z,6.08
2019-03-31T18:05:41.102Z,6.34
2019-03-31T18:10:49.237Z,6.44
2019-03-31T18:15:57.369Z,5.69
2019-03-31T18:21:05.741Z,7.07
2019-03-31T18:26:14.292Z,8.39
2019-03-31T18:31:22.915Z,6.56
2019-03-31T18:36:36.988Z,7.85
2019-03-31T18:41:40.965Z,6.66
2019-03-31T18:46:49.093Z,6.40
2019-03-31T18:51:57.167Z,6.11
2019-03-31T18:57:05.682Z,7.46
2019-03-31T19:02:13.983Z,7.01
2019-03-31T19:07:22.123Z,7.42
2019-03-31T19:12:30.750Z,6.72
2019-03-31T19:17:39.158Z,9.51
2019-03-31T19:22:47.678Z,7.95
2019-03-31T19:27:55.909Z,6.44
2019-03-31T19:33:04.478Z,8.01
2019-03-31T19:38:14.132Z,8.23
2019-03-31T19:43:20.849Z,8.55
2019-03-31T19:48:29.281Z,8.67
2019-03-31T19:53:37.474Z,9.50
2019-03-31T19:58:45.638Z,8.53
2019-03-31T20:03:53.930Z,8.14
2019-03-31T20:09:03.142Z,7.28
2019-03-31T20:14:11.457Z,8.19
2019-03-31T20:19:20.052Z,8.96
2019-03-31T20:24:28.409Z,9.74
2019-03-31T20:29:37.002Z,7.78
2019-03-31T20:34:45.450Z,8.68
2019-03-31T20:39:56.842Z,8.32
2019-03-31T20:45:01.471Z,9.30
2019-03-31T20:50:09.742Z,8.99
2019-03-31T20:55:18.026Z,9.13
2019-03-31T21:00:26.102Z,8.44
2019-03-31T21:05:34.337Z,8.36
2019-03-31T21:10:42.553Z,8.46
2019-03-31T21:15:50.712Z,8.18
2019-03-31T21:20:59.215Z,6.40
2019-03-31T21:26:07.456Z,7.44
2019-03-31T21:31:15.574Z,8.46
2019-03-31T21:36:23.813Z,6.70
2019-03-31T21:41:32.041Z,7.52
2019-03-31T21:46:40.191Z,7.50
2019-03-31T21:51:48.765Z,5.78
2019-03-31T21:56:56.925Z,8.46
2019-03-31T22:02:05.106Z,8.68
2019-03-31T22:07:13.345Z,10.35
2019-03-31T22:12:21.596Z,8.15
2019-03-31T22:17:29.824Z,8.09
2019-03-31T22:22:38.173Z,8.28
2019-03-31T22:27:46.445Z,7.95
2019-03-31T22:32:54.741Z,7.37
2019-03-31T22:38:02.959Z,7.42
2019-03-31T22:43:11.138Z,6.75
2019-03-31T22:48:19.248Z,7.25
2019-03-31T22:53:27.387Z,9.00
2019-03-31T22:58:35.593Z,9.52
2019-03-31T23:03:43.834Z,5.51
2019-03-31T23:08:52.016Z,5.51
2019-03-31T23:14:00.145Z,7.02
2019-03-31T23:19:08.283Z,8.37
2019-03-31T23:24:16.445Z,8.10
2019-03-31T23:29:24.737Z,8.76
2019-03-31T23:34:32.897Z,6.61
2019-03-31T23:39:41.225Z,7.41
2019-03-31T23:44:49.375Z,6.03
2019-03-31T23:49:57.477Z,7.44
2019-03-31T23:55:05.613Z,6.65
